Time,TemperatureF,DewpointF,PressureIn,WindDirection,WindDirectionDegrees,WindSpeedMPH,WindSpeedGustMPH,Humidity,HourlyPrecipIn,Conditions,Clouds,dailyrainin,SoftwareType,DateUTC
2013-05-08 00:08:00,54.4,47.0,30.14,NW,320,0.0,1.0,77,0.00,,,0.00,weatherlink.com 1.10,2013-05-08 04:08:00,
2013-05-08 00:23:00,54.1,47.0,30.14,NW,322,0.0,1.0,78,0.00,,,0.00,weatherlink.com 1.10,2013-05-08 04:23:00,
2013-05-08 00:38:00,53.6,47.0,30.14,NW,321,0.0,1.0,79,0.00,,,0.00,weatherlink.com 1.10,2013-05-08 04:38:00,
2013-05-08 00:53:00,53.3,47.0,30.14,NW,321,0.0,1.0,79,0.00,,,0.00,weatherlink.com 1.10,2013-05-08 04:53:00,
2013-05-08 01:08:00,53.0,47.0,30.14,NW,321,0.0,1.0,81,0.00,,,0.00,weatherlink.com 1.10,2013-05-08 05:08:00,
2013-05-08 01:23:00,52.8,47.0,30.14,NW,322,0.0,1.0,81,0.00,,,0.00,weatherlink.com 1.10,2013-05-08 05:23:00,
2013-05-08 01:38:00,52.4,47.0,30.14,NW,322,0.0,1.0,83,0.00,,,0.00,weatherlink.com 1.10,2013-05-08 05:38:00,
2013-05-08 01:53:00,52.0,48.0,30.14,NW,321,0.0,1.0,85,0.00,,,0.00,weatherlink.com 1.10,2013-05-08 05:53:00,
2013-05-08 02:09:00,51.7,48.0,30.14,NW,321,0.0,1.0,86,0.00,,,0.00,weatherlink.com 1.10,2013-05-08 06:09:00,
2013-05-08 02:24:00,51.4,48.0,30.14,NW,321,0.0,1.0,87,0.00,,,0.00,weatherlink.com 1.10,2013-05-08 06:24:00,
2013-05-08 02:39:00,50.9,48.0,30.14,NW,322,0.0,1.0,88,0.00,,,0.00,weatherlink.com 1.10,2013-05-08 06:39:00,
2013-05-08 02:54:00,50.5,47.0,30.15,NW,322,1.0,1.0,89,0.00,,,0.00,weatherlink.com 1.10,2013-05-08 06:54:00,
2013-05-08 03:09:00,50.2,47.0,30.15,NW,322,0.0,1.0,89,0.00,,,0.00,weatherlink.com 1.10,2013-05-08 07:09:00,
2013-05-08 03:24:00,49.9,47.0,30.14,NW,321,0.0,1.0,90,0.00,,,0.00,weatherlink.com 1.10,2013-05-08 07:24:00,
2013-05-08 03:39:00,49.7,47.0,30.15,NW,320,0.0,1.0,91,0.00,,,0.00,weatherlink.com 1.10,2013-05-08 07:39:00,
2013-05-08 03:54:00,49.2,47.0,30.15,NW,320,0.0,1.0,91,0.00,,,0.00,weatherlink.com 1.10,2013-05-08 07:54:00,
2013-05-08 04:09:00,49.1,47.0,30.15,NW,320,0.0,1.0,92,0.00,,,0.00,weatherlink.com 1.10,2013-05-08 08:09:00,
2013-05-08 04:24:00,48.8,47.0,30.15,NW,321,0.0,1.0,92,0.00,,,0.00,weatherlink.com 1.10,2013-05-08 08:24:00,
2013-05-08 04:39:00,48.5,46.0,30.15,NW,319,0.0,1.0,92,0.00,,,0.00,weatherlink.com 1.10,2013-05-08 08:39:00,
2013-05-08 04:54:00,48.2,46.0,30.16,NW,319,0.0,0.0,93,0.00,,,0.00,weatherlink.com 1.10,2013-05-08 08:54:00,
2013-05-08 05:09:00,48.2,47.0,30.16,NW,319,0.0,1.0,94,0.00,,,0.00,weatherlink.com 1.10,2013-05-08 09:09:00,
2013-05-08 05:24:00,47.9,46.0,30.16,NW,319,0.0,1.0,94,0.00,,,0.00,weatherlink.com 1.10,2013-05-08 09:24:00,
2013-05-08 05:39:00,47.7,46.0,30.16,NW,319,0.0,0.0,94,0.00,,,0.00,weatherlink.com 1.10,2013-05-08 09:39:00,
2013-05-08 05:54:00,47.6,46.0,30.17,NW,319,0.0,1.0,94,0.00,,,0.00,weatherlink.com 1.10,2013-05-08 09:54:00,
2013-05-08 06:09:00,47.9,46.0,30.18,NW,320,0.0,1.0,94,0.00,,,0.00,weatherlink.com 1.10,2013-05-08 10:09:00,
2013-05-08 06:24:00,48.7,47.0,30.18,NW,321,0.0,0.0,95,0.00,,,0.00,weatherlink.com 1.10,2013-05-08 10:24:00,
2013-05-08 06:39:00,52.3,51.0,30.19,NW,321,0.0,1.0,95,0.00,,,0.00,weatherlink.com 1.10,2013-05-08 10:39:00,
2013-05-08 06:54:00,52.0,50.0,30.19,NNW,328,1.0,1.0,92,0.00,,,0.00,weatherlink.com 1.10,2013-05-08 10:54:00,
2013-05-08 07:09:00,53.0,51.0,30.19,East,79,1.0,1.0,92,0.00,,,0.00,weatherlink.com 1.10,2013-05-08 11:09:00,
2013-05-08 07:24:00,54.2,52.0,30.19,NE,35,0.0,2.0,91,0.00,,,0.00,weatherlink.com 1.10,2013-05-08 11:24:00,
2013-05-08 07:39:00,55.3,53.0,30.20,NE,39,1.0,1.0,90,0.00,,,0.00,weatherlink.com 1.10,2013-05-08 11:39:00,
2013-05-08 07:54:00,56.6,53.0,30.20,South,172,0.0,2.0,87,0.00,,,0.00,weatherlink.com 1.10,2013-05-08 11:54:00,
2013-05-08 08:09:00,58.6,54.0,30.20,ESE,104,0.0,2.0,85,0.00,,,0.00,weatherlink.com 1.10,2013-05-08 12:09:00,
2013-05-08 08:24:00,59.7,54.0,30.20,NE,41,1.0,2.0,82,0.00,,,0.00,weatherlink.com 1.10,2013-05-08 12:24:00,
2013-05-08 08:39:00,61.3,55.0,30.20,SE,124,1.0,1.0,81,0.00,,,0.00,weatherlink.com 1.10,2013-05-08 12:39:00,
2013-05-08 08:55:00,62.5,56.0,30.20,SSW,207,0.0,3.0,79,0.00,,,0.00,weatherlink.com 1.10,2013-05-08 12:55:00,
2013-05-08 09:10:00,64.1,57.0,30.20,SW,224,1.0,3.0,77,0.00,,,0.00,weatherlink.com 1.10,2013-05-08 13:10:00,
2013-05-08 09:25:00,65.8,58.0,30.19,North,352,2.0,2.0,75,0.00,,,0.00,weatherlink.com 1.10,2013-05-08 13:25:00,
2013-05-08 09:40:00,66.6,58.0,30.18,SE,134,0.0,3.0,75,0.00,,,0.00,weatherlink.com 1.10,2013-05-08 13:40:00,
2013-05-08 09:55:00,67.9,59.0,30.18,NNW,340,0.0,3.0,72,0.00,,,0.00,weatherlink.com 1.10,2013-05-08 13:55:00,
2013-05-08 10:10:00,69.9,58.0,30.17,West,268,1.0,3.0,67,0.00,,,0.00,weatherlink.com 1.10,2013-05-08 14:10:00,
2013-05-08 10:25:00,71.7,58.0,30.17,NE,36,0.0,4.0,63,0.00,,,0.00,weatherlink.com 1.10,2013-05-08 14:25:00,
2013-05-08 10:40:00,73.5,59.0,30.16,WSW,255,0.0,4.0,60,0.00,,,0.00,weatherlink.com 1.10,2013-05-08 14:40:00,
2013-05-08 10:55:00,74.5,58.0,30.15,SSE,159,2.0,3.0,56,0.00,,,0.00,weatherlink.com 1.10,2013-05-08 14:55:00,
2013-05-08 11:10:00,75.3,56.0,30.15,SE,131,1.0,5.0,52,0.00,,,0.00,weatherlink.com 1.10,2013-05-08 15:10:00,
2013-05-08 11:25:00,76.0,55.0,30.15,ESE,119,1.0,7.0,48,0.00,,,0.00,weatherlink.com 1.10,2013-05-08 15:25:00,
2013-05-08 11:40:00,75.8,55.0,30.14,SW,235,3.0,8.0,48,0.00,,,0.00,weatherlink.com 1.10,2013-05-08 15:40:00,
2013-05-08 11:55:00,75.6,54.0,30.14,SW,221,4.0,9.0,48,0.00,,,0.00,weatherlink.com 1.10,2013-05-08 15:55:00,
2013-05-08 12:10:00,75.0,54.0,30.14,SSW,208,1.0,5.0,48,0.00,,,0.00,weatherlink.com 1.10,2013-05-08 16:10:00,
2013-05-08 12:25:00,73.6,54.0,30.14,SE,139,3.0,6.0,51,0.00,,,0.00,weatherlink.com 1.10,2013-05-08 16:25:00,
2013-05-08 12:40:00,71.4,56.0,30.15,SE,127,3.0,15.0,59,0.00,,,0.00,weatherlink.com 1.10,2013-05-08 16:40:00,
2013-05-08 13:10:00,67.3,60.0,30.15,ENE,65,0.0,4.0,76,0.00,,,0.00,weatherlink.com 1.10,2013-05-08 17:10:00,
2013-05-08 13:25:00,68.9,61.0,30.14,ESE,105,2.0,5.0,77,0.00,,,0.00,weatherlink.com 1.10,2013-05-08 17:25:00,
2013-05-08 13:40:00,70.5,62.0,30.13,NE,44,1.0,6.0,75,0.00,,,0.00,weatherlink.com 1.10,2013-05-08 17:40:00,
2013-05-08 13:55:00,73.4,62.0,30.13,SE,128,2.0,3.0,68,0.00,,,0.00,weatherlink.com 1.10,2013-05-08 17:55:00,
2013-05-08 14:10:00,72.0,60.0,30.12,NE,42,3.0,6.0,65,0.00,,,0.00,weatherlink.com 1.10,2013-05-08 18:10:00,
2013-05-08 14:25:00,73.2,59.0,30.11,ESE,114,2.0,3.0,62,0.00,,,0.00,weatherlink.com 1.10,2013-05-08 18:25:00,
2013-05-08 14:40:00,72.3,59.0,30.11,ESE,121,1.0,10.0,64,0.00,,,0.00,weatherlink.com 1.10,2013-05-08 18:40:00,
2013-05-08 14:55:00,69.7,61.0,30.11,South,169,2.0,5.0,74,0.02,,,0.02,weatherlink.com 1.10,2013-05-08 18:55:00,
2013-05-08 15:10:00,68.5,61.0,30.10,West,265,1.0,3.0,78,0.02,,,0.02,weatherlink.com 1.10,2013-05-08 19:10:00,
2013-05-08 15:26:00,68.7,61.0,30.11,SSE,166,1.0,5.0,77,0.02,,,0.02,weatherlink.com 1.10,2013-05-08 19:26:00,
2013-05-08 15:40:00,68.3,61.0,30.11,SE,135,1.0,9.0,78,0.04,,,0.04,weatherlink.com 1.10,2013-05-08 19:40:00,
2013-05-08 15:56:00,66.5,61.0,30.10,SE,124,0.0,2.0,81,0.03,,,0.05,weatherlink.com 1.10,2013-05-08 19:56:00,
2013-05-08 16:11:00,67.5,62.0,30.10,SSW,205,0.0,1.0,81,0.03,,,0.05,weatherlink.com 1.10,2013-05-08 20:11:00,
2013-05-08 16:26:00,67.7,62.0,30.09,NW,311,0.0,2.0,82,0.03,,,0.05,weatherlink.com 1.10,2013-05-08 20:26:00,
2013-05-08 16:41:00,67.8,62.0,30.09,NNW,342,0.0,2.0,81,0.01,,,0.05,weatherlink.com 1.10,2013-05-08 20:41:00,
2013-05-08 16:56:00,68.6,62.0,30.09,SW,224,0.0,1.0,80,0.00,,,0.05,weatherlink.com 1.10,2013-05-08 20:56:00,
2013-05-08 17:11:00,69.3,62.0,30.08,WSW,242,0.0,1.0,78,0.00,,,0.05,weatherlink.com 1.10,2013-05-08 21:11:00,
2013-05-08 17:26:00,69.3,62.0,30.08,SE,134,0.0,3.0,77,0.00,,,0.05,weatherlink.com 1.10,2013-05-08 21:26:00,
2013-05-08 17:41:00,69.1,61.0,30.08,ESE,105,2.0,7.0,76,0.00,,,0.05,weatherlink.com 1.10,2013-05-08 21:41:00,
2013-05-08 17:56:00,68.4,61.0,30.09,South,177,0.0,14.0,76,0.01,,,0.06,weatherlink.com 1.10,2013-05-08 21:56:00,
2013-05-08 18:11:00,65.3,60.0,30.09,WNW,287,1.0,4.0,83,0.04,,,0.09,weatherlink.com 1.10,2013-05-08 22:11:00,
2013-05-08 18:26:00,64.0,60.0,30.08,NW,319,1.0,4.0,87,0.06,,,0.11,weatherlink.com 1.10,2013-05-08 22:26:00,
2013-05-08 18:41:00,63.7,61.0,30.09,West,274,0.0,1.0,90,0.07,,,0.12,weatherlink.com 1.10,2013-05-08 22:41:00,
2013-05-08 18:56:00,63.3,61.0,30.08,East,88,0.0,1.0,92,0.08,,,0.14,weatherlink.com 1.10,2013-05-08 22:56:00,
2013-05-08 19:11:00,62.9,61.0,30.08,ENE,58,0.0,2.0,92,0.07,,,0.16,weatherlink.com 1.10,2013-05-08 23:11:00,
2013-05-08 19:26:00,62.6,60.0,30.08,ESE,108,1.0,3.0,92,0.05,,,0.16,weatherlink.com 1.10,2013-05-08 23:26:00,
2013-05-08 19:41:00,62.8,61.0,30.08,NNW,335,2.0,3.0,92,0.04,,,0.16,weatherlink.com 1.10,2013-05-08 23:41:00,
2013-05-08 19:56:00,62.6,60.0,30.07,NW,308,0.0,2.0,92,0.02,,,0.17,weatherlink.com 1.10,2013-05-08 23:56:00,
2013-05-08 20:11:00,62.4,60.0,30.08,WNW,285,1.0,2.0,92,0.01,,,0.17,weatherlink.com 1.10,2013-05-09 00:11:00,
2013-05-08 20:26:00,62.3,60.0,30.08,West,276,0.0,2.0,92,0.01,,,0.17,weatherlink.com 1.10,2013-05-09 00:26:00,
2013-05-08 20:41:00,62.3,60.0,30.08,North,349,0.0,1.0,93,0.00,,,0.17,weatherlink.com 1.10,2013-05-09 00:41:00,
2013-05-08 20:56:00,61.9,60.0,30.08,NNE,28,0.0,2.0,93,0.02,,,0.19,weatherlink.com 1.10,2013-05-09 00:56:00,
2013-05-08 21:11:00,61.8,60.0,30.08,NW,316,1.0,2.0,93,0.04,,,0.21,weatherlink.com 1.10,2013-05-09 01:11:00,
2013-05-08 21:26:00,61.5,60.0,30.08,SSE,159,0.0,0.0,94,0.08,,,0.25,weatherlink.com 1.10,2013-05-09 01:26:00,
2013-05-08 21:41:00,61.6,60.0,30.08,NW,325,0.0,1.0,94,0.10,,,0.27,weatherlink.com 1.10,2013-05-09 01:41:00,
2013-05-08 21:56:00,61.6,60.0,30.08,NNW,328,0.0,4.0,95,0.08,,,0.27,weatherlink.com 1.10,2013-05-09 01:56:00,
2013-05-08 22:11:00,61.6,60.0,30.08,SE,136,0.0,3.0,94,0.07,,,0.28,weatherlink.com 1.10,2013-05-09 02:11:00,
2013-05-08 22:26:00,61.4,60.0,30.07,WNW,291,0.0,1.0,94,0.08,,,0.33,weatherlink.com 1.10,2013-05-09 02:26:00,
2013-05-08 22:41:00,61.3,60.0,30.07,SE,142,0.0,1.0,94,0.10,,,0.37,weatherlink.com 1.10,2013-05-09 02:41:00,
2013-05-08 22:56:00,61.1,60.0,30.06,SE,142,0.0,3.0,95,0.14,,,0.41,weatherlink.com 1.10,2013-05-09 02:56:00,
2013-05-08 23:11:00,61.1,60.0,30.05,ENE,69,2.0,2.0,95,0.15,,,0.43,weatherlink.com 1.10,2013-05-09 03:11:00,
2013-05-08 23:26:00,61.1,59.0,30.05,NNW,337,0.0,2.0,94,0.10,,,0.43,weatherlink.com 1.10,2013-05-09 03:26:00,
2013-05-08 23:41:00,61.1,59.0,30.05,NNE,22,0.0,3.0,94,0.05,,,0.43,weatherlink.com 1.10,2013-05-09 03:41:00,
2013-05-08 23:56:00,60.9,59.0,30.04,East,86,3.0,5.0,94,0.02,,,0.43,weatherlink.com 1.10,2013-05-09 03:56:00,